Terminal Aerodrome Forecast
Issued by NWS

Home | Current Version | Previous Version | Text Only | Print | Product List | Glossary On
Versions: 1 2 3 4 5 6 7 8 9 10 11 12 13 14 15 16 17 18 19 20 21 22 23 24 25 26 27 28 29 30 31 32 33 34 35 36 37 38 39 40 41
000
FTAK31 PANC 251147 AAA
TAFADU
TAF AMD
PADU 251147Z 2512/2612 20014G22KT 4SM -SN BR SCT015 BKN025 OVC050
     FM252000 20025G40KT 3SM -SHRA BKN015 OVC025
     FM260400 19015G25KT P6SM VCSH BKN035 OVC060
      AMD NOT SKED=

USA.gov is the U.S. government's official web portal to all federal, state and local government web resources and services.